Portada
METAR-TAF:

METAR-TAF

Aeroports :

Pattaya-Rayong, Tailàndia

latitud: 12-38N, longitud: 101-21E, altitud: 3 m

Observació

L'informe es va fer fa 30 minuts, a les 22:30 UTC
Vent 7 kt del Nord
Temperatura 24°C
Humitat 74%
Pressió 1011 hPa
Visibilitat: 5000 m
Escasses núvols a una alçada de 2000 ft
boirina

METAR: VTBU 192230Z 36007KT 5000 BR FEW020 24/19 Q1011 NOSIG

Hora: 06:00 (23:00 UTC)

Pronòstic

L'informe es va fer fa 12 hores i 0 minuts, a les 11:00 UTC
Pronòstic vàlid del 19 a les 12 UTC al 20 a les 12 UTC
Vent 6 kt del Oest/Sud-Oest
Visibilitat: 8000 m
Escasses núvols a una alçada de 2000 ft
Evolucionant progressivament
l' 19 a les 18 UTC al 19 a les 20 UTC
Vent 4 kt del Nord
Visibilitat: 6000 m
Evolucionant progressivament
l' 20 a les 03 UTC al 20 a les 05 UTC
Vent 6 kt del Sud
Visibilitat: 8000 m

TAF: VTBU 191100Z 1912/2012 24006KT 8000 FEW020 BECMG 1918/1920 36004KT 6000 BECMG 2003/2005 18006KT 8000

Observacions i pronòstics meteorològics de més de 4000 aeroports (METAR i TAF).

Les estacions disponibles són els punts grocs i vermells al mapa.

Posi el ratolí al punt desitjat per veure el nom de l'estació.

Feu clic per veure les observacions i els pronòstics meteorològics.

Per canviar el mapa: feu clic els botons verds amb una creu de color negre per apropar; al botó verd amb un guió per allunyar la imatge; o en les fletxes verdes per a mapes adjacents.


METAR-TAF: